Hackett, Arkansas
Current Conditions -  °F | °C
As of 3:53 AM on Friday 21 Nov 2014 (Local Time) from KFSM Reporting Station
Overcast Overcast  
Wind Chill: 44°   Ceiling: 2200
Heat Index: 49°   Visibility: 10mi
Dew Point: 34°   Wind: 13mph
Humidity: 56%   Direction: 80°E
Pressure: 30.17"   Gusts: NA
Location:  35.19°N, 94.41°W
Report Text: KFSM 210953Z 08011KT 10SM OVC022 09/01 A3017 RMK AO2 SLP216 T00940011
Loading
Personal Weather Stations






























Interactive Weather Map New forecast layout! Learn more

10-Day Weather Forecast

Advertisements
Track Severe Weather on mobile